N0,26 Fumimaru — JK5398 — position and weather

sailwx.info

Track history (hours):
 
Tides and Currents Weather Stations Pressure Air Temp Water Temp Dewpoint Dewpoint Depression Visibility Wind Speed Wind Dir Waves Ship Positions

N0,26 Fumimaru

Last reported at 2014-Jul-31 23:33 UTC. Time now 2014-Aug-01 09:50 UTC.
Position N 35°05' E 139°45'.

Length 39 m; draft 3.6 m.

Type: Ship. MMSI: 431400427.

Date/timePositionNaut miles runAvg speedWind from/ knotsBaromVisibWave heightAir tempDewpointWater temp
2014-Jul-31 23:33N 35°05' E 139°45'1010.3
2014-Jul-31 22:33N 35°15' E 139°46'10 9.4
2014-Jul-31 21:27N 35°25' E 139°44'910.1
2014-Jul-31 20:33N 35°31' E 139°52'7 3.5
2014-Jul-31 18:29N 35°37' E 139°48'0 0.0
2014-Jul-31 17:29N 35°37' E 139°48'0 0.0
2014-Jul-31 16:17N 35°37' E 139°48'0 0.0
2014-Jul-31 15:23N 35°37' E 139°48'0 0.0
2014-Jul-31 14:29N 35°37' E 139°48'0 0.0
2014-Jul-31 13:23N 35°37' E 139°48'0 0.0
2014-Jul-31 12:29N 35°37' E 139°48'0 0.0
2014-Jul-31 11:29N 35°37' E 139°48'0 0.0
2014-Jul-31 10:23N 35°37' E 139°48'0 0.0
2014-Jul-31 09:29N 35°37' E 139°48'0 0.0
2014-Jul-31 08:29N 35°37' E 139°48'0 0.0
2014-Jul-31 07:29N 35°37' E 139°48'0 0.0
2014-Jul-31 06:23N 35°37' E 139°48'0 0.0
2014-Jul-31 05:23N 35°37' E 139°48'0 0.0
2014-Jul-31 04:23N 35°37' E 139°48'0 0.0
2014-Jul-31 03:29N 35°37' E 139°48'0 0.0
2014-Jul-31 02:29N 35°37' E 139°48'0 0.0
2014-Jul-31 01:29N 35°37' E 139°48'0 0.0
2014-Jul-31 00:26N 35°37' E 139°48'0 0.0
2014-Jul-30 23:29N 35°37' E 139°48'0 0.0
2014-Jul-30 22:29N 35°37' E 139°48'0 0.0
2014-Jul-30 21:17N 35°37' E 139°48'0 0.0
2014-Jul-30 20:29N 35°37' E 139°48'0 0.0
2014-Jul-30 19:29N 35°37' E 139°48'0 0.0
2014-Jul-30 18:29N 35°37' E 139°48'0 0.0
2014-Jul-30 17:29N 35°37' E 139°48'0 0.0
2014-Jul-30 16:29N 35°37' E 139°48'0 0.0
2014-Jul-30 15:23N 35°37' E 139°48'0 0.0
2014-Jul-30 14:17N 35°37' E 139°48'0 0.0
2014-Jul-30 13:29N 35°37' E 139°48'0 0.0
2014-Jul-30 12:17N 35°37' E 139°48'0 0.1
2014-Jul-30 11:27N 35°37' E 139°48'0 0.2
2014-Jul-30 10:34N 35°37' E 139°48'0 0.1
2014-Jul-30 07:28N 35°37' E 139°48'2 2.3
2014-Jul-30 06:33N 35°36' E 139°50'17 8.2
2014-Jul-30 04:26N 35°19' E 139°44'7 8.0
2014-Jul-30 03:32N 35°12' E 139°47'8 7.5
2014-Jul-30 02:32N 35°05' E 139°47'  
2014-Jul-26 14:21N 35°01' E 139°44'4 5.1
2014-Jul-26 13:33N 35°05' E 139°44'5 5.1
2014-Jul-26 12:33N 35°10' E 139°46'6 6.4
2014-Jul-26 11:33N 35°16' E 139°46'8 8.0
2014-Jul-26 10:32N 35°24' E 139°43'8 7.4
2014-Jul-26 09:26N 35°29' E 139°50'6 6.7
2014-Jul-26 08:33N 35°32' E 139°57'7 6.6
2014-Jul-26 07:33N 35°33' E 140°05'0 0.2
2014-Jul-26 06:31N 35°33' E 140°05'0 0.0
2014-Jul-26 05:31N 35°33' E 140°05'0 0.0
2014-Jul-26 04:28N 35°33' E 140°05'0 0.0
2014-Jul-26 03:31N 35°33' E 140°05'0 0.0
2014-Jul-26 02:31N 35°33' E 140°05'0 0.0
2014-Jul-26 01:28N 35°33' E 140°05'0 0.0
2014-Jul-26 00:31N 35°33' E 140°05'0 0.0
2014-Jul-25 23:28N 35°33' E 140°05'0 0.0
2014-Jul-25 22:31N 35°33' E 140°05'1 0.7
2014-Jul-25 21:33N 35°33' E 140°04'5 4.8
2014-Jul-25 20:33N 35°35' E 139°59'5 5.0
2014-Jul-25 19:33N 35°36' E 139°53'4 4.0
2014-Jul-25 18:29N 35°37' E 139°48'0 0.0
2014-Jul-25 17:32N 35°37' E 139°48'0 0.0
2014-Jul-25 16:29N 35°37' E 139°48'0 0.0
2014-Jul-25 15:32N 35°37' E 139°48'0 0.0
2014-Jul-25 14:29N 35°37' E 139°48'0 0.0
2014-Jul-25 13:32N 35°37' E 139°48'0 0.0
2014-Jul-25 12:29N 35°37' E 139°48'0 0.0
2014-Jul-25 11:29N 35°37' E 139°48'0 0.0
2014-Jul-25 10:32N 35°37' E 139°48'0 0.0
2014-Jul-25 09:32N 35°37' E 139°48'0 0.0
2014-Jul-25 08:29N 35°37' E 139°48'0 0.0
2014-Jul-25 07:23N 35°37' E 139°48'0 0.0
2014-Jul-25 06:32N 35°37' E 139°48'0 0.0
2014-Jul-25 05:23N 35°37' E 139°48'0 0.0
2014-Jul-25 04:23N 35°37' E 139°48'0 0.0
2014-Jul-25 03:29N 35°37' E 139°48'0 0.0
2014-Jul-25 02:29N 35°37' E 139°48'0 0.0
2014-Jul-25 01:32N 35°37' E 139°48'0 0.0
2014-Jul-25 00:29N 35°37' E 139°48'0 0.0
2014-Jul-24 23:32N 35°37' E 139°48'0 0.0
2014-Jul-24 22:29N 35°37' E 139°48'0 0.0
2014-Jul-24 21:32N 35°37' E 139°48'0 0.0
2014-Jul-24 20:32N 35°37' E 139°48'0 0.0
2014-Jul-24 19:32N 35°37' E 139°48'0 0.0
2014-Jul-24 18:32N 35°37' E 139°48'0 0.0
2014-Jul-24 17:32N 35°37' E 139°48'0 0.0
2014-Jul-24 16:29N 35°37' E 139°48'0 0.0
2014-Jul-24 15:32N 35°37' E 139°48'0 0.0
2014-Jul-24 14:29N 35°37' E 139°48'0 0.0
2014-Jul-24 13:32N 35°37' E 139°48'0 0.0
2014-Jul-24 12:32N 35°37' E 139°48'0 0.0
2014-Jul-24 11:32N 35°37' E 139°48'0 0.0
2014-Jul-24 10:29N 35°37' E 139°48'0 0.0
2014-Jul-24 09:32N 35°37' E 139°48'0 0.0
2014-Jul-24 08:32N 35°37' E 139°48'0 0.0
2014-Jul-24 07:32N 35°37' E 139°48'0 0.0
2014-Jul-24 06:29N 35°37' E 139°48'0 0.0
2014-Jul-24 05:32N 35°37' E 139°48'0 0.0
2014-Jul-24 04:29N 35°37' E 139°48'0 0.0
2014-Jul-24 03:32N 35°37' E 139°48'0 0.0
2014-Jul-24 02:32N 35°37' E 139°48'0 0.0
2014-Jul-24 01:32N 35°37' E 139°48'0 0.0
2014-Jul-24 00:32N 35°37' E 139°48'0 0.0
2014-Jul-23 23:26N 35°37' E 139°48'0 0.0
2014-Jul-23 22:29N 35°37' E 139°48'0 0.0
2014-Jul-23 21:23N 35°37' E 139°48'0 0.0
2014-Jul-23 20:32N 35°37' E 139°48'0 0.0
2014-Jul-23 19:32N 35°37' E 139°48'0 0.0
2014-Jul-23 18:32N 35°37' E 139°48'0 0.0
2014-Jul-23 17:32N 35°37' E 139°48'0 0.0
2014-Jul-23 16:26N 35°37' E 139°48'0 0.0
2014-Jul-23 15:32N 35°37' E 139°48'0 0.0
2014-Jul-23 14:32N 35°37' E 139°48'0 0.0
2014-Jul-23 13:32N 35°37' E 139°48'0 0.0
2014-Jul-23 12:32N 35°37' E 139°48'0 0.0
2014-Jul-23 11:23N 35°37' E 139°48'0 0.0
2014-Jul-23 10:32N 35°37' E 139°48'0 0.0
2014-Jul-23 09:32N 35°37' E 139°48'0 0.0
2014-Jul-23 08:32N 35°37' E 139°48'0 0.0
2014-Jul-23 07:32N 35°37' E 139°48'0 0.0
2014-Jul-23 06:26N 35°37' E 139°48'0 0.0
2014-Jul-23 05:32N 35°37' E 139°48'0 0.0
2014-Jul-23 04:32N 35°37' E 139°48'0 0.0
2014-Jul-23 03:32N 35°37' E 139°48'0 0.0
2014-Jul-23 02:32N 35°37' E 139°48'0 0.0
2014-Jul-23 01:32N 35°37' E 139°48'0 0.0
2014-Jul-23 00:32N 35°37' E 139°48'0 0.0
2014-Jul-22 23:29N 35°37' E 139°48'0 0.0
2014-Jul-22 22:32N 35°37' E 139°48'0 0.0
2014-Jul-22 21:32N 35°37' E 139°48'0 0.0
2014-Jul-22 20:32N 35°37' E 139°48'0 0.0
2014-Jul-22 19:32N 35°37' E 139°48'0 0.0
2014-Jul-22 18:32N 35°37' E 139°48'0 0.0
2014-Jul-22 17:32N 35°37' E 139°48'0 0.0
2014-Jul-22 16:32N 35°37' E 139°48'0 0.0
2014-Jul-22 15:32N 35°37' E 139°48'0 0.0
2014-Jul-22 14:32N 35°37' E 139°48'0 0.0
2014-Jul-22 13:32N 35°37' E 139°48'0 0.0
2014-Jul-22 12:29N 35°37' E 139°48'0 0.0
2014-Jul-22 11:32N 35°37' E 139°48'0 0.0
2014-Jul-22 10:26N 35°37' E 139°48'0 0.0
2014-Jul-22 09:32N 35°37' E 139°48'0 0.0
2014-Jul-22 08:32N 35°37' E 139°48'0 0.0
2014-Jul-22 07:32N 35°37' E 139°48'0 0.0
2014-Jul-22 06:32N 35°37' E 139°48'0 0.0
2014-Jul-22 05:32N 35°37' E 139°48'0 0.0
2014-Jul-22 04:32N 35°37' E 139°48'0 0.0
2014-Jul-22 03:32N 35°37' E 139°48'0 0.0
2014-Jul-22 02:29N 35°37' E 139°48'0 0.0
2014-Jul-22 01:32N 35°37' E 139°48'0 0.0
2014-Jul-22 00:32N 35°37' E 139°48'  
Track history (hours):
 
Tides and Currents Weather Stations Pressure Air Temp Water Temp Dewpoint Dewpoint Depression Visibility Wind Speed Wind Dir Waves Ship Positions

N0,26 Fumimaru

Last reported at 2014-Jul-31 23:33 UTC. Time now 2014-Aug-01 09:50 UTC.
Position N 35°05' E 139°45'.

Length 39 m; draft 3.6 m.

Type: Ship. MMSI: 431400427.

Date/timePositionNaut miles runAvg speedWind from/ knotsBaromVisibWave heightAir tempDewpointWater temp
2014-Jul-31 23:33N 35°05' E 139°45'1010.3
2014-Jul-31 22:33N 35°15' E 139°46'10 9.4
2014-Jul-31 21:27N 35°25' E 139°44'910.1
2014-Jul-31 20:33N 35°31' E 139°52'7 3.5
2014-Jul-31 18:29N 35°37' E 139°48'0 0.0
2014-Jul-31 17:29N 35°37' E 139°48'0 0.0
2014-Jul-31 16:17N 35°37' E 139°48'0 0.0
2014-Jul-31 15:23N 35°37' E 139°48'0 0.0
2014-Jul-31 14:29N 35°37' E 139°48'0 0.0
2014-Jul-31 13:23N 35°37' E 139°48'0 0.0
2014-Jul-31 12:29N 35°37' E 139°48'0 0.0
2014-Jul-31 11:29N 35°37' E 139°48'0 0.0
2014-Jul-31 10:23N 35°37' E 139°48'0 0.0
2014-Jul-31 09:29N 35°37' E 139°48'0 0.0
2014-Jul-31 08:29N 35°37' E 139°48'0 0.0
2014-Jul-31 07:29N 35°37' E 139°48'0 0.0
2014-Jul-31 06:23N 35°37' E 139°48'0 0.0
2014-Jul-31 05:23N 35°37' E 139°48'0 0.0
2014-Jul-31 04:23N 35°37' E 139°48'0 0.0
2014-Jul-31 03:29N 35°37' E 139°48'0 0.0
2014-Jul-31 02:29N 35°37' E 139°48'0 0.0
2014-Jul-31 01:29N 35°37' E 139°48'0 0.0
2014-Jul-31 00:26N 35°37' E 139°48'0 0.0
2014-Jul-30 23:29N 35°37' E 139°48'0 0.0
2014-Jul-30 22:29N 35°37' E 139°48'0 0.0
2014-Jul-30 21:17N 35°37' E 139°48'0 0.0
2014-Jul-30 20:29N 35°37' E 139°48'0 0.0
2014-Jul-30 19:29N 35°37' E 139°48'0 0.0
2014-Jul-30 18:29N 35°37' E 139°48'0 0.0
2014-Jul-30 17:29N 35°37' E 139°48'0 0.0
2014-Jul-30 16:29N 35°37' E 139°48'0 0.0
2014-Jul-30 15:23N 35°37' E 139°48'0 0.0
2014-Jul-30 14:17N 35°37' E 139°48'0 0.0
2014-Jul-30 13:29N 35°37' E 139°48'0 0.0
2014-Jul-30 12:17N 35°37' E 139°48'0 0.1
2014-Jul-30 11:27N 35°37' E 139°48'0 0.2
2014-Jul-30 10:34N 35°37' E 139°48'0 0.1
2014-Jul-30 07:28N 35°37' E 139°48'2 2.3
2014-Jul-30 06:33N 35°36' E 139°50'17 8.2
2014-Jul-30 04:26N 35°19' E 139°44'7 8.0
2014-Jul-30 03:32N 35°12' E 139°47'8 7.5
2014-Jul-30 02:32N 35°05' E 139°47'  
2014-Jul-26 14:21N 35°01' E 139°44'4 5.1
2014-Jul-26 13:33N 35°05' E 139°44'5 5.1
2014-Jul-26 12:33N 35°10' E 139°46'6 6.4
2014-Jul-26 11:33N 35°16' E 139°46'8 8.0
2014-Jul-26 10:32N 35°24' E 139°43'8 7.4
2014-Jul-26 09:26N 35°29' E 139°50'6 6.7
2014-Jul-26 08:33N 35°32' E 139°57'7 6.6
2014-Jul-26 07:33N 35°33' E 140°05'0 0.2
2014-Jul-26 06:31N 35°33' E 140°05'0 0.0
2014-Jul-26 05:31N 35°33' E 140°05'0 0.0
2014-Jul-26 04:28N 35°33' E 140°05'0 0.0
2014-Jul-26 03:31N 35°33' E 140°05'0 0.0
2014-Jul-26 02:31N 35°33' E 140°05'0 0.0
2014-Jul-26 01:28N 35°33' E 140°05'0 0.0
2014-Jul-26 00:31N 35°33' E 140°05'0 0.0
2014-Jul-25 23:28N 35°33' E 140°05'0 0.0
2014-Jul-25 22:31N 35°33' E 140°05'1 0.7
2014-Jul-25 21:33N 35°33' E 140°04'5 4.8
2014-Jul-25 20:33N 35°35' E 139°59'5 5.0
2014-Jul-25 19:33N 35°36' E 139°53'4 4.0
2014-Jul-25 18:29N 35°37' E 139°48'0 0.0
2014-Jul-25 17:32N 35°37' E 139°48'0 0.0
2014-Jul-25 16:29N 35°37' E 139°48'0 0.0
2014-Jul-25 15:32N 35°37' E 139°48'0 0.0
2014-Jul-25 14:29N 35°37' E 139°48'0 0.0
2014-Jul-25 13:32N 35°37' E 139°48'0 0.0
2014-Jul-25 12:29N 35°37' E 139°48'0 0.0
2014-Jul-25 11:29N 35°37' E 139°48'0 0.0
2014-Jul-25 10:32N 35°37' E 139°48'0 0.0
2014-Jul-25 09:32N 35°37' E 139°48'0 0.0
2014-Jul-25 08:29N 35°37' E 139°48'0 0.0
2014-Jul-25 07:23N 35°37' E 139°48'0 0.0
2014-Jul-25 06:32N 35°37' E 139°48'0 0.0
2014-Jul-25 05:23N 35°37' E 139°48'0 0.0
2014-Jul-25 04:23N 35°37' E 139°48'0 0.0
2014-Jul-25 03:29N 35°37' E 139°48'0 0.0
2014-Jul-25 02:29N 35°37' E 139°48'0 0.0
2014-Jul-25 01:32N 35°37' E 139°48'0 0.0
2014-Jul-25 00:29N 35°37' E 139°48'0 0.0
2014-Jul-24 23:32N 35°37' E 139°48'0 0.0
2014-Jul-24 22:29N 35°37' E 139°48'0 0.0
2014-Jul-24 21:32N 35°37' E 139°48'0 0.0
2014-Jul-24 20:32N 35°37' E 139°48'0 0.0
2014-Jul-24 19:32N 35°37' E 139°48'0 0.0
2014-Jul-24 18:32N 35°37' E 139°48'0 0.0
2014-Jul-24 17:32N 35°37' E 139°48'0 0.0
2014-Jul-24 16:29N 35°37' E 139°48'0 0.0
2014-Jul-24 15:32N 35°37' E 139°48'0 0.0
2014-Jul-24 14:29N 35°37' E 139°48'0 0.0
2014-Jul-24 13:32N 35°37' E 139°48'0 0.0
2014-Jul-24 12:32N 35°37' E 139°48'0 0.0
2014-Jul-24 11:32N 35°37' E 139°48'0 0.0
2014-Jul-24 10:29N 35°37' E 139°48'0 0.0
2014-Jul-24 09:32N 35°37' E 139°48'0 0.0
2014-Jul-24 08:32N 35°37' E 139°48'0 0.0
2014-Jul-24 07:32N 35°37' E 139°48'0 0.0
2014-Jul-24 06:29N 35°37' E 139°48'0 0.0
2014-Jul-24 05:32N 35°37' E 139°48'0 0.0
2014-Jul-24 04:29N 35°37' E 139°48'0 0.0
2014-Jul-24 03:32N 35°37' E 139°48'0 0.0
2014-Jul-24 02:32N 35°37' E 139°48'0 0.0
2014-Jul-24 01:32N 35°37' E 139°48'0 0.0
2014-Jul-24 00:32N 35°37' E 139°48'0 0.0
2014-Jul-23 23:26N 35°37' E 139°48'0 0.0
2014-Jul-23 22:29N 35°37' E 139°48'0 0.0
2014-Jul-23 21:23N 35°37' E 139°48'0 0.0
2014-Jul-23 20:32N 35°37' E 139°48'0 0.0
2014-Jul-23 19:32N 35°37' E 139°48'0 0.0
2014-Jul-23 18:32N 35°37' E 139°48'0 0.0
2014-Jul-23 17:32N 35°37' E 139°48'0 0.0
2014-Jul-23 16:26N 35°37' E 139°48'0 0.0
2014-Jul-23 15:32N 35°37' E 139°48'0 0.0
2014-Jul-23 14:32N 35°37' E 139°48'0 0.0
2014-Jul-23 13:32N 35°37' E 139°48'0 0.0
2014-Jul-23 12:32N 35°37' E 139°48'0 0.0
2014-Jul-23 11:23N 35°37' E 139°48'0 0.0
2014-Jul-23 10:32N 35°37' E 139°48'0 0.0
2014-Jul-23 09:32N 35°37' E 139°48'0 0.0
2014-Jul-23 08:32N 35°37' E 139°48'0 0.0
2014-Jul-23 07:32N 35°37' E 139°48'0 0.0
2014-Jul-23 06:26N 35°37' E 139°48'0 0.0
2014-Jul-23 05:32N 35°37' E 139°48'0 0.0
2014-Jul-23 04:32N 35°37' E 139°48'0 0.0
2014-Jul-23 03:32N 35°37' E 139°48'0 0.0
2014-Jul-23 02:32N 35°37' E 139°48'0 0.0
2014-Jul-23 01:32N 35°37' E 139°48'0 0.0
2014-Jul-23 00:32N 35°37' E 139°48'0 0.0
2014-Jul-22 23:29N 35°37' E 139°48'0 0.0
2014-Jul-22 22:32N 35°37' E 139°48'0 0.0
2014-Jul-22 21:32N 35°37' E 139°48'0 0.0
2014-Jul-22 20:32N 35°37' E 139°48'0 0.0
2014-Jul-22 19:32N 35°37' E 139°48'0 0.0
2014-Jul-22 18:32N 35°37' E 139°48'0 0.0
2014-Jul-22 17:32N 35°37' E 139°48'0 0.0
2014-Jul-22 16:32N 35°37' E 139°48'0 0.0
2014-Jul-22 15:32N 35°37' E 139°48'0 0.0
2014-Jul-22 14:32N 35°37' E 139°48'0 0.0
2014-Jul-22 13:32N 35°37' E 139°48'0 0.0
2014-Jul-22 12:29N 35°37' E 139°48'0 0.0
2014-Jul-22 11:32N 35°37' E 139°48'0 0.0
2014-Jul-22 10:26N 35°37' E 139°48'0 0.0
2014-Jul-22 09:32N 35°37' E 139°48'0 0.0
2014-Jul-22 08:32N 35°37' E 139°48'0 0.0
2014-Jul-22 07:32N 35°37' E 139°48'0 0.0
2014-Jul-22 06:32N 35°37' E 139°48'0 0.0
2014-Jul-22 05:32N 35°37' E 139°48'0 0.0
2014-Jul-22 04:32N 35°37' E 139°48'0 0.0
2014-Jul-22 03:32N 35°37' E 139°48'0 0.0
2014-Jul-22 02:29N 35°37' E 139°48'0 0.0
2014-Jul-22 01:32N 35°37' E 139°48'0 0.0
2014-Jul-22 00:32N 35°37' E 139°48'  

Dump ship's entire track history